createdAt,value
2019-02-21T00:01:08.079Z,9.51
2019-02-21T00:03:56.016Z,9.53
2019-02-21T00:06:46.412Z,9.55
2019-02-21T00:09:33.734Z,9.56
2019-02-21T00:12:21.365Z,9.53
2019-02-21T00:15:08.988Z,9.53
2019-02-21T00:17:56.131Z,9.51
2019-02-21T00:20:43.841Z,9.53
2019-02-21T00:23:31.065Z,9.50
2019-02-21T00:26:18.585Z,9.51
2019-02-21T00:29:06.314Z,9.54
2019-02-21T00:31:53.433Z,9.53
2019-02-21T00:34:40.962Z,9.53
2019-02-21T00:37:28.283Z,9.55
2019-02-21T00:40:15.812Z,9.44
2019-02-21T00:43:03.438Z,9.43
2019-02-21T00:45:51.067Z,9.44
2019-02-21T00:48:38.391Z,9.42
2019-02-21T00:51:26.121Z,9.41
2019-02-21T00:54:13.547Z,9.41
2019-02-21T00:57:00.657Z,9.35
2019-02-21T00:59:50.747Z,9.36
2019-02-21T01:02:37.349Z,9.32
2019-02-21T01:05:25.187Z,9.28
2019-02-21T01:08:13.214Z,9.26
2019-02-21T01:11:00.651Z,9.26
2019-02-21T01:13:47.970Z,9.23
2019-02-21T01:16:35.495Z,9.19
2019-02-21T01:19:22.618Z,9.17
2019-02-21T01:22:10.144Z,9.14
2019-02-21T01:24:57.869Z,9.15
2019-02-21T01:27:45.603Z,9.16
2019-02-21T01:30:33.232Z,9.16
2019-02-21T01:33:20.394Z,9.15
2019-02-21T01:36:08.210Z,9.13
2019-02-21T01:38:56.124Z,9.12
2019-02-21T01:41:44.565Z,8.98
2019-02-21T01:44:32.186Z,9.03
2019-02-21T01:47:19.740Z,9.04
2019-02-21T01:50:08.642Z,9.07
2019-02-21T01:52:56.054Z,8.96
2019-02-21T01:55:44.347Z,8.95
2019-02-21T01:58:31.670Z,8.99
2019-02-21T02:01:19.511Z,8.99
2019-02-21T02:04:07.132Z,9.07
2019-02-21T02:06:54.659Z,9.09
2019-02-21T02:09:42.183Z,8.98
2019-02-21T02:12:29.817Z,8.99
2019-02-21T02:15:17.649Z,9.02
2019-02-21T02:18:05.583Z,9.05
2019-02-21T02:20:53.211Z,9.06
2019-02-21T02:23:40.739Z,9.03
2019-02-21T02:26:28.370Z,9.01
2019-02-21T02:29:15.894Z,9.01
2019-02-21T02:32:03.631Z,9.01
2019-02-21T02:34:51.055Z,8.94
2019-02-21T02:37:38.477Z,8.91
2019-02-21T02:40:27.843Z,8.85
2019-02-21T02:43:15.478Z,8.84
2019-02-21T02:46:03.207Z,8.82
2019-02-21T02:48:50.731Z,8.81
2019-02-21T02:51:38.567Z,8.78
2019-02-21T02:54:25.888Z,8.72
2019-02-21T02:57:13.718Z,8.65
2019-02-21T03:00:01.143Z,8.61
2019-02-21T03:02:48.892Z,8.59
2019-02-21T03:05:36.298Z,8.58
2019-02-21T03:08:23.826Z,8.54
2019-02-21T03:11:11.562Z,8.54
2019-02-21T03:13:59.293Z,8.53
2019-02-21T03:16:46.407Z,8.51
2019-02-21T03:19:34.138Z,8.49
2019-02-21T03:22:21.868Z,8.50
2019-02-21T03:25:09.086Z,8.51
2019-02-21T03:27:56.512Z,8.52
2019-02-21T03:30:44.143Z,8.49
2019-02-21T03:33:31.745Z,8.50
2019-02-21T03:36:18.997Z,8.44
2019-02-21T03:39:08.667Z,8.40
2019-02-21T03:41:56.294Z,8.38
2019-02-21T03:44:43.616Z,8.30
2019-02-21T03:47:31.161Z,8.20
2019-02-21T03:50:18.679Z,8.09
2019-02-21T03:53:06.509Z,8.18
2019-02-21T03:55:54.570Z,8.26
2019-02-21T03:58:42.182Z,8.21
2019-02-21T04:01:29.697Z,8.16
2019-02-21T04:04:17.536Z,8.28
2019-02-21T04:07:04.881Z,8.39
2019-02-21T04:09:51.973Z,8.46
2019-02-21T04:12:39.206Z,8.55
2019-02-21T04:15:26.816Z,8.56
2019-02-21T04:18:14.354Z,8.60
2019-02-21T04:21:01.927Z,8.49
2019-02-21T04:23:50.543Z,8.47
2019-02-21T04:26:38.053Z,8.38
2019-02-21T04:29:24.965Z,8.37
2019-02-21T04:32:17.096Z,8.39
2019-02-21T04:35:01.003Z,8.32
2019-02-21T04:37:48.565Z,8.32
2019-02-21T04:40:36.098Z,8.11
2019-02-21T04:43:23.720Z,8.18
2019-02-21T04:46:11.353Z,8.33
2019-02-21T04:48:58.569Z,8.26
2019-02-21T04:51:46.401Z,7.99
2019-02-21T04:54:33.936Z,8.17
2019-02-21T04:57:21.762Z,8.40
2019-02-21T05:00:11.807Z,8.51
2019-02-21T05:02:58.973Z,8.61
2019-02-21T05:05:46.596Z,8.68
2019-02-21T05:08:34.026Z,8.75
2019-02-21T05:11:21.852Z,8.74
2019-02-21T05:14:08.972Z,8.70
2019-02-21T05:16:56.191Z,8.70
2019-02-21T05:19:43.924Z,8.73
2019-02-21T05:22:31.345Z,8.67
2019-02-21T05:25:19.081Z,8.51
2019-02-21T05:28:23.193Z,8.39
2019-02-21T05:31:12.566Z,8.36
2019-02-21T05:34:01.668Z,8.30
2019-02-21T05:36:50.687Z,8.22
2019-02-21T05:39:55.173Z,8.28
2019-02-21T05:43:02.705Z,8.22
2019-02-21T05:46:10.211Z,7.69
2019-02-21T05:48:59.887Z,8.06
2019-02-21T05:51:54.778Z,7.93
2019-02-21T05:54:58.631Z,8.02
2019-02-21T05:57:48.263Z,7.96
2019-02-21T06:00:37.637Z,8.09
2019-02-21T06:03:26.694Z,8.12
2019-02-21T06:06:19.039Z,8.09
2019-02-21T06:09:14.956Z,8.21
2019-02-21T06:12:03.812Z,8.30
2019-02-21T06:14:56.124Z,8.18
2019-02-21T06:17:48.185Z,8.20
2019-02-21T06:20:37.176Z,8.22
2019-02-21T06:23:29.180Z,8.27
2019-02-21T06:26:21.109Z,8.21
2019-02-21T06:29:10.790Z,8.31
2019-02-21T06:31:58.413Z,8.34
2019-02-21T06:34:46.048Z,8.26
2019-02-21T06:37:33.363Z,8.16
2019-02-21T06:40:20.481Z,8.28
2019-02-21T06:43:08.119Z,8.24
2019-02-21T06:45:57.818Z,7.93
2019-02-21T06:48:44.289Z,8.31
2019-02-21T06:51:32.391Z,8.42
2019-02-21T06:54:19.752Z,8.48
2019-02-21T06:57:07.177Z,8.45
2019-02-21T06:59:54.803Z,8.54
2019-02-21T07:02:42.023Z,8.47
2019-02-21T07:05:29.550Z,8.22
2019-02-21T07:08:16.895Z,8.42
2019-02-21T07:11:06.503Z,8.53
2019-02-21T07:13:53.358Z,8.59
2019-02-21T07:16:40.786Z,8.37
2019-02-21T07:19:28.106Z,8.64
2019-02-21T07:22:17.952Z,8.82
2019-02-21T07:25:07.471Z,8.89
2019-02-21T07:27:55.090Z,8.98
2019-02-21T07:30:43.621Z,8.89
2019-02-21T07:33:31.267Z,8.95
2019-02-21T07:36:18.382Z,8.73
2019-02-21T07:39:18.310Z,8.88
2019-02-21T07:41:59.796Z,8.94
2019-02-21T07:44:47.179Z,8.97
2019-02-21T07:47:34.736Z,9.00
2019-02-21T07:50:23.378Z,8.91
2019-02-21T07:53:11.109Z,8.95
2019-02-21T07:55:58.401Z,9.24
2019-02-21T07:58:45.765Z,9.23
2019-02-21T08:01:33.392Z,9.39
2019-02-21T08:04:21.328Z,9.50
2019-02-21T08:07:08.448Z,9.60
2019-02-21T08:09:57.611Z,9.66
2019-02-21T08:12:44.736Z,9.75
2019-02-21T08:15:32.364Z,9.78
2019-02-21T08:18:19.684Z,9.78
2019-02-21T08:21:07.308Z,9.78
2019-02-21T08:23:54.938Z,9.80
2019-02-21T08:26:42.403Z,9.69
2019-02-21T08:29:29.819Z,9.43
2019-02-21T08:32:18.947Z,9.55
2019-02-21T08:35:07.049Z,9.34
2019-02-21T08:37:54.313Z,9.31
2019-02-21T08:40:41.541Z,9.49
2019-02-21T08:43:28.644Z,9.77
2019-02-21T08:46:18.247Z,9.63
2019-02-21T08:49:04.925Z,9.68
2019-02-21T08:51:54.986Z,9.88
2019-02-21T08:54:41.515Z,9.82
2019-02-21T08:57:29.558Z,9.87
2019-02-21T09:00:17.624Z,10.05
2019-02-21T09:03:05.570Z,10.16
2019-02-21T09:05:53.159Z,10.23
2019-02-21T09:08:41.196Z,10.01
2019-02-21T09:11:28.517Z,9.99
2019-02-21T09:14:16.044Z,10.00
2019-02-21T09:17:03.475Z,10.00
2019-02-21T09:19:51.099Z,9.80
2019-02-21T09:22:38.931Z,10.01
2019-02-21T09:25:26.605Z,10.23
2019-02-21T09:28:15.834Z,10.36
2019-02-21T09:31:03.064Z,10.33
2019-02-21T09:33:50.797Z,10.33
2019-02-21T09:36:38.414Z,10.34
2019-02-21T09:39:26.161Z,10.42
2019-02-21T09:42:13.974Z,10.51
2019-02-21T09:45:01.312Z,10.22
2019-02-21T09:47:48.845Z,9.72
2019-02-21T09:50:36.571Z,10.00
2019-02-21T09:53:24.080Z,8.73
2019-02-21T09:56:11.504Z,10.24
2019-02-21T09:58:58.722Z,10.04
2019-02-21T10:01:46.659Z,10.23
2019-02-21T10:04:34.176Z,9.88
2019-02-21T10:07:21.812Z,9.85
2019-02-21T10:10:19.798Z,10.17
2019-02-21T10:13:07.109Z,10.17
2019-02-21T10:15:54.531Z,10.11
2019-02-21T10:18:41.761Z,10.20
2019-02-21T10:21:29.486Z,10.28
2019-02-21T10:24:16.808Z,10.35
2019-02-21T10:27:04.639Z,10.50
2019-02-21T10:29:52.367Z,10.85
2019-02-21T10:32:39.587Z,11.09
2019-02-21T10:35:27.113Z,11.35
2019-02-21T10:38:14.438Z,11.10
2019-02-21T10:41:01.659Z,11.37
2019-02-21T10:43:49.090Z,11.53
2019-02-21T10:46:36.607Z,11.68
2019-02-21T10:49:23.828Z,11.34
2019-02-21T10:52:10.945Z,11.55
2019-02-21T10:54:58.265Z,11.89
2019-02-21T10:57:46.109Z,12.02
2019-02-21T11:00:33.623Z,12.20
2019-02-21T11:03:20.857Z,11.96
2019-02-21T11:06:08.434Z,12.12
2019-02-21T11:08:56.203Z,12.02
2019-02-21T11:11:43.730Z,12.34
2019-02-21T11:14:32.178Z,12.31
2019-02-21T11:17:19.694Z,12.62
2019-02-21T11:20:10.097Z,12.77
2019-02-21T11:22:57.734Z,12.75
2019-02-21T11:25:45.161Z,13.24
2019-02-21T11:28:32.987Z,13.43
2019-02-21T11:31:20.826Z,13.33
2019-02-21T11:34:08.551Z,13.43
2019-02-21T11:36:56.291Z,13.22
2019-02-21T11:39:43.601Z,12.97
2019-02-21T11:42:31.231Z,12.98
2019-02-21T11:45:22.159Z,13.38
2019-02-21T11:48:09.973Z,13.91
2019-02-21T11:50:57.807Z,13.97
2019-02-21T11:53:45.743Z,14.31
2019-02-21T11:56:33.269Z,14.27
2019-02-21T11:59:20.589Z,14.52
2019-02-21T12:02:07.811Z,14.40
2019-02-21T12:04:55.335Z,14.78
2019-02-21T12:07:42.863Z,14.73
2019-02-21T12:10:30.592Z,14.63
2019-02-21T12:13:18.428Z,14.75
2019-02-21T12:16:05.650Z,14.87
2019-02-21T12:18:52.875Z,14.96
2019-02-21T12:21:40.394Z,14.95
2019-02-21T12:24:27.923Z,15.01
2019-02-21T12:27:15.243Z,14.85
2019-02-21T12:30:02.573Z,14.86
2019-02-21T12:32:50.189Z,14.41
2019-02-21T12:35:37.851Z,14.02
2019-02-21T12:38:25.041Z,14.41
2019-02-21T12:41:12.269Z,14.68
2019-02-21T12:44:00.092Z,14.66
2019-02-21T12:46:47.414Z,14.42
2019-02-21T12:49:34.738Z,14.10
2019-02-21T12:52:22.365Z,14.03
2019-02-21T12:55:11.280Z,14.01
2019-02-21T12:57:58.559Z,13.84
2019-02-21T13:00:46.377Z,14.00
2019-02-21T13:03:34.615Z,13.99
2019-02-21T13:06:21.745Z,14.33
2019-02-21T13:09:09.470Z,14.20
2019-02-21T13:11:56.999Z,14.11
2019-02-21T13:14:44.628Z,14.27
2019-02-21T13:17:31.947Z,14.57
2019-02-21T13:20:19.883Z,14.71
2019-02-21T13:23:07.527Z,14.87
2019-02-21T13:25:55.243Z,14.73
2019-02-21T13:28:42.667Z,14.83
2019-02-21T13:31:29.995Z,15.16
2019-02-21T13:34:17.416Z,15.24
2019-02-21T13:37:04.964Z,15.11
2019-02-21T13:39:52.366Z,14.73
2019-02-21T13:42:39.995Z,14.71
2019-02-21T13:45:27.932Z,14.62
2019-02-21T13:48:16.581Z,14.95
2019-02-21T13:51:03.608Z,14.82
2019-02-21T13:53:52.332Z,14.88
2019-02-21T13:56:40.190Z,14.64
2019-02-21T13:59:27.321Z,14.39
2019-02-21T14:02:15.429Z,14.45
2019-02-21T14:05:02.972Z,14.56
2019-02-21T14:07:50.710Z,14.87
2019-02-21T14:10:38.138Z,14.96
2019-02-21T14:13:25.553Z,14.78
2019-02-21T14:16:13.692Z,14.69
2019-02-21T14:19:00.809Z,14.73
2019-02-21T14:21:48.645Z,14.78
2019-02-21T14:24:37.378Z,14.83
2019-02-21T14:27:24.928Z,14.53
2019-02-21T14:30:20.645Z,14.51
2019-02-21T14:33:08.272Z,14.51
2019-02-21T14:35:56.004Z,14.51
2019-02-21T14:38:43.743Z,14.51
2019-02-21T14:41:30.859Z,14.68
2019-02-21T14:44:18.498Z,14.85
2019-02-21T14:47:07.940Z,14.75
2019-02-21T14:49:54.570Z,14.52
2019-02-21T14:52:42.087Z,14.36
2019-02-21T14:55:30.257Z,14.06
2019-02-21T14:58:17.446Z,13.95
2019-02-21T15:01:05.946Z,14.42
2019-02-21T15:03:53.336Z,14.49
2019-02-21T15:06:40.639Z,14.54
2019-02-21T15:09:27.756Z,14.46
2019-02-21T15:12:15.487Z,14.31
2019-02-21T15:15:03.156Z,13.76
2019-02-21T15:17:51.052Z,13.93
2019-02-21T15:20:38.580Z,13.96
2019-02-21T15:23:26.108Z,14.20
2019-02-21T15:26:13.530Z,14.28
2019-02-21T15:29:01.263Z,14.10
2019-02-21T15:31:48.632Z,14.28
2019-02-21T15:34:35.908Z,14.37
2019-02-21T15:37:23.637Z,14.49
2019-02-21T15:40:11.061Z,14.56
2019-02-21T15:42:58.494Z,14.50
2019-02-21T15:45:45.704Z,14.57
2019-02-21T15:48:33.438Z,14.48
2019-02-21T15:51:20.766Z,14.51
2019-02-21T15:54:08.453Z,14.60
2019-02-21T15:56:56.223Z,14.48
2019-02-21T15:59:43.645Z,14.44
2019-02-21T16:02:31.172Z,14.03
2019-02-21T16:05:18.697Z,14.16
2019-02-21T16:08:06.191Z,14.31
2019-02-21T16:10:53.651Z,14.42
2019-02-21T16:13:41.543Z,14.13
2019-02-21T16:16:30.969Z,14.20
2019-02-21T16:19:18.381Z,14.25
2019-02-21T16:22:05.908Z,14.22
2019-02-21T16:24:53.332Z,14.27
2019-02-21T16:27:41.165Z,14.27
2019-02-21T16:30:28.489Z,14.06
2019-02-21T16:33:16.505Z,14.16
2019-02-21T16:36:04.055Z,14.17
2019-02-21T16:38:51.683Z,14.23
2019-02-21T16:41:39.308Z,14.12
2019-02-21T16:44:26.427Z,14.15
2019-02-21T16:47:14.391Z,14.07
2019-02-21T16:50:01.717Z,14.06
2019-02-21T16:52:49.313Z,14.10
2019-02-21T16:55:36.738Z,13.98
2019-02-21T16:58:24.059Z,13.91
2019-02-21T17:01:11.793Z,13.99
2019-02-21T17:03:59.216Z,13.77
2019-02-21T17:06:46.744Z,13.69
2019-02-21T17:09:33.859Z,13.64
2019-02-21T17:12:21.552Z,13.58
2019-02-21T17:15:17.220Z,13.66
2019-02-21T17:18:06.681Z,13.64
2019-02-21T17:20:53.998Z,13.66
2019-02-21T17:23:41.837Z,13.58
2019-02-21T17:26:30.896Z,13.62
2019-02-21T17:29:18.012Z,13.68
2019-02-21T17:32:05.438Z,13.65
2019-02-21T17:34:53.378Z,13.68
2019-02-21T17:37:41.035Z,13.67
2019-02-21T17:40:28.733Z,13.61
2019-02-21T17:43:16.365Z,13.69
2019-02-21T17:46:03.582Z,13.56
2019-02-21T17:48:50.701Z,13.64
2019-02-21T17:51:38.333Z,13.67
2019-02-21T17:54:27.793Z,13.66
2019-02-21T17:57:14.962Z,13.54
2019-02-21T18:00:02.564Z,13.45
2019-02-21T18:02:50.057Z,13.46
2019-02-21T18:05:37.910Z,13.52
2019-02-21T18:08:25.329Z,13.45
2019-02-21T18:11:12.965Z,13.34
2019-02-21T18:14:00.548Z,13.41
2019-02-21T18:16:47.809Z,13.40
2019-02-21T18:19:35.188Z,13.45
2019-02-21T18:22:22.473Z,13.50
2019-02-21T18:25:16.434Z,13.39
2019-02-21T18:28:03.859Z,13.38
2019-02-21T18:30:50.971Z,13.41
2019-02-21T18:33:38.397Z,13.38
2019-02-21T18:36:25.332Z,13.33
2019-02-21T18:39:13.472Z,13.35
2019-02-21T18:42:05.693Z,13.35
2019-02-21T18:44:52.907Z,13.40
2019-02-21T18:47:40.431Z,13.40
2019-02-21T18:50:37.623Z,13.34
2019-02-21T18:53:17.556Z,13.28
2019-02-21T18:56:05.779Z,13.19
2019-02-21T18:58:53.548Z,13.27
2019-02-21T19:01:40.725Z,13.27
2019-02-21T19:04:28.561Z,13.35
2019-02-21T19:07:15.984Z,13.34
2019-02-21T19:10:04.468Z,13.34
2019-02-21T19:12:51.858Z,13.21
2019-02-21T19:15:39.795Z,13.20
2019-02-21T19:18:28.861Z,13.27
2019-02-21T19:21:16.412Z,13.20
2019-02-21T19:24:04.009Z,13.19
2019-02-21T19:26:51.853Z,13.24
2019-02-21T19:29:39.073Z,13.26
2019-02-21T19:32:26.710Z,13.23
2019-02-21T19:35:14.383Z,13.25
2019-02-21T19:38:10.033Z,13.26
2019-02-21T19:40:50.612Z,13.24
2019-02-21T19:43:38.161Z,13.24
2019-02-21T19:46:25.556Z,13.19
2019-02-21T19:49:12.776Z,13.10
2019-02-21T19:52:00.403Z,13.09
2019-02-21T19:54:48.096Z,12.82
2019-02-21T19:57:35.869Z,12.93
2019-02-21T20:00:26.957Z,13.06
2019-02-21T20:03:14.198Z,13.05
2019-02-21T20:06:01.314Z,13.06
2019-02-21T20:08:50.383Z,12.95
2019-02-21T20:11:38.125Z,12.90
2019-02-21T20:14:26.771Z,12.99
2019-02-21T20:17:14.126Z,13.02
2019-02-21T20:20:02.499Z,13.04
2019-02-21T20:22:49.854Z,12.95
2019-02-21T20:25:36.866Z,13.08
2019-02-21T20:28:24.290Z,13.10
2019-02-21T20:31:12.167Z,12.89
2019-02-21T20:33:59.755Z,12.85
2019-02-21T20:36:50.985Z,12.80
2019-02-21T20:39:36.445Z,12.91
2019-02-21T20:42:24.670Z,12.90
2019-02-21T20:45:16.106Z,12.96
2019-02-21T20:48:03.227Z,12.94
2019-02-21T20:50:56.875Z,12.79
2019-02-21T20:53:39.611Z,12.79
2019-02-21T20:56:27.443Z,12.89
2019-02-21T20:59:14.970Z,12.83
2019-02-21T21:02:02.499Z,12.89
2019-02-21T21:04:50.033Z,12.77
2019-02-21T21:07:37.653Z,12.76
2019-02-21T21:10:25.384Z,12.90
2019-02-21T21:13:12.616Z,13.02
2019-02-21T21:16:00.335Z,13.05
2019-02-21T21:18:48.064Z,13.04
2019-02-21T21:21:35.692Z,12.93
2019-02-21T21:24:23.329Z,12.98
2019-02-21T21:27:11.057Z,12.97
2019-02-21T21:29:58.178Z,13.02
2019-02-21T21:32:45.361Z,13.05
2019-02-21T21:35:32.801Z,12.94
2019-02-21T21:38:24.229Z,12.91
2019-02-21T21:41:09.506Z,12.60
2019-02-21T21:43:57.033Z,12.79
2019-02-21T21:46:44.353Z,12.87
2019-02-21T21:49:31.983Z,12.74
2019-02-21T21:52:19.816Z,12.83
2019-02-21T21:55:07.550Z,12.77
2019-02-21T21:57:55.074Z,12.77
2019-02-21T22:00:42.808Z,12.67
2019-02-21T22:03:30.131Z,12.63
2019-02-21T22:06:17.555Z,12.57
2019-02-21T22:09:06.081Z,12.56
2019-02-21T22:11:53.225Z,12.51
2019-02-21T22:14:40.440Z,12.52
2019-02-21T22:17:27.863Z,12.47
2019-02-21T22:20:15.390Z,12.46
2019-02-21T22:23:02.817Z,12.49
2019-02-21T22:25:50.547Z,12.51
2019-02-21T22:28:38.688Z,12.51
2019-02-21T22:31:26.214Z,12.52
2019-02-21T22:34:14.459Z,12.60
2019-02-21T22:37:02.188Z,12.64
2019-02-21T22:39:50.026Z,12.71
2019-02-21T22:42:37.143Z,12.71
2019-02-21T22:45:24.565Z,12.73
2019-02-21T22:48:12.297Z,12.74
2019-02-21T22:51:00.234Z,12.74
2019-02-21T22:53:47.351Z,12.67
2019-02-21T22:56:34.371Z,12.73
2019-02-21T22:59:22.553Z,12.76
2019-02-21T23:02:10.136Z,12.65
2019-02-21T23:05:15.686Z,12.68
2019-02-21T23:08:03.555Z,12.67
2019-02-21T23:10:51.454Z,12.65
2019-02-21T23:13:38.981Z,12.63
2019-02-21T23:16:26.949Z,12.63
2019-02-21T23:19:15.101Z,12.58
2019-02-21T23:22:03.124Z,12.55
2019-02-21T23:24:51.031Z,12.66
2019-02-21T23:27:38.353Z,12.59
2019-02-21T23:30:25.786Z,12.62
2019-02-21T23:33:13.963Z,12.62
2019-02-21T23:36:01.561Z,12.49
2019-02-21T23:38:48.969Z,12.63
2019-02-21T23:41:36.834Z,12.68
2019-02-21T23:44:24.124Z,12.66
2019-02-21T23:47:11.773Z,12.57
2019-02-21T23:49:59.077Z,12.59
2019-02-21T23:52:46.607Z,12.58
2019-02-21T23:55:34.332Z,12.48
2019-02-21T23:58:21.655Z,12.68
